sensor_id;sensor_type;location;lat;lon;timestamp;P1;durP1;ratioP1;P2;durP2;ratioP2
63326;SDS011;49452;48.366;10.926;2024-01-10T00:00:03;65.72;;;40.58;;
63326;SDS011;49452;48.366;10.926;2024-01-10T00:00:34;77.40;;;40.55;;
63326;SDS011;49452;48.366;10.926;2024-01-10T00:01:06;72.75;;;41.80;;
63326;SDS011;49452;48.366;10.926;2024-01-10T00:01:37;68.55;;;39.60;;
63326;SDS011;49452;48.366;10.926;2024-01-10T00:02:08;72.75;;;40.47;;
63326;SDS011;49452;48.366;10.926;2024-01-10T00:02:38;70.05;;;39.47;;
63326;SDS011;49452;48.366;10.926;2024-01-10T00:03:09;70.47;;;40.75;;
63326;SDS011;49452;48.366;10.926;2024-01-10T00:03:40;68.25;;;39.33;;
63326;SDS011;49452;48.366;10.926;2024-01-10T00:04:10;68.80;;;39.03;;
63326;SDS011;49452;48.366;10.926;2024-01-10T00:04:41;66.47;;;39.67;;
63326;SDS011;49452;48.366;10.926;2024-01-10T00:05:12;67.90;;;40.08;;
63326;SDS011;49452;48.366;10.926;2024-01-10T00:05:43;62.80;;;39.42;;
63326;SDS011;49452;48.366;10.926;2024-01-10T00:06:14;69.88;;;38.28;;
63326;SDS011;49452;48.366;10.926;2024-01-10T00:06:44;71.15;;;41.28;;
63326;SDS011;49452;48.366;10.926;2024-01-10T00:07:15;66.90;;;39.85;;
63326;SDS011;49452;48.366;10.926;2024-01-10T00:07:46;65.30;;;40.40;;
63326;SDS011;49452;48.366;10.926;2024-01-10T00:08:16;69.07;;;40.10;;
63326;SDS011;49452;48.366;10.926;2024-01-10T00:08:47;68.15;;;39.03;;
63326;SDS011;49452;48.366;10.926;2024-01-10T00:09:18;68.93;;;41.03;;
63326;SDS011;49452;48.366;10.926;2024-01-10T00:09:48;70.60;;;41.33;;
63326;SDS011;49452;48.366;10.926;2024-01-10T00:10:19;69.38;;;41.63;;
63326;SDS011;49452;48.366;10.926;2024-01-10T00:10:52;64.50;;;40.40;;
63326;SDS011;49452;48.366;10.926;2024-01-10T00:11:22;66.95;;;40.33;;
63326;SDS011;49452;48.366;10.926;2024-01-10T00:11:53;67.80;;;40.30;;
63326;SDS011;49452;48.366;10.926;2024-01-10T00:12:24;67.22;;;40.38;;
63326;SDS011;49452;48.366;10.926;2024-01-10T00:12:54;64.72;;;39.53;;
63326;SDS011;49452;48.366;10.926;2024-01-10T00:13:25;68.60;;;40.97;;
63326;SDS011;49452;48.366;10.926;2024-01-10T00:13:56;68.20;;;40.05;;
63326;SDS011;49452;48.366;10.926;2024-01-10T00:14:30;66.60;;;38.63;;
63326;SDS011;49452;48.366;10.926;2024-01-10T00:15:01;60.30;;;38.50;;
63326;SDS011;49452;48.366;10.926;2024-01-10T00:15:32;63.08;;;38.13;;
63326;SDS011;49452;48.366;10.926;2024-01-10T00:16:03;61.33;;;38.38;;
63326;SDS011;49452;48.366;10.926;2024-01-10T00:16:34;66.55;;;39.28;;
63326;SDS011;49452;48.366;10.926;2024-01-10T00:17:04;71.55;;;42.17;;
63326;SDS011;49452;48.366;10.926;2024-01-10T00:17:35;67.85;;;39.17;;
63326;SDS011;49452;48.366;10.926;2024-01-10T00:18:06;67.25;;;39.75;;
63326;SDS011;49452;48.366;10.926;2024-01-10T00:18:36;75.10;;;42.20;;
63326;SDS011;49452;48.366;10.926;2024-01-10T00:19:07;63.85;;;37.95;;
63326;SDS011;49452;48.366;10.926;2024-01-10T00:19:38;67.65;;;39.05;;
63326;SDS011;49452;48.366;10.926;2024-01-10T00:20:09;69.78;;;42.47;;
63326;SDS011;49452;48.366;10.926;2024-01-10T00:20:40;71.60;;;41.28;;
63326;SDS011;49452;48.366;10.926;2024-01-10T00:21:10;70.38;;;41.85;;
63326;SDS011;49452;48.366;10.926;2024-01-10T00:21:41;72.72;;;41.75;;
63326;SDS011;49452;48.366;10.926;2024-01-10T00:22:12;69.70;;;42.72;;
63326;SDS011;49452;48.366;10.926;2024-01-10T00:22:43;70.50;;;41.25;;
63326;SDS011;49452;48.366;10.926;2024-01-10T00:23:13;75.03;;;41.22;;
63326;SDS011;49452;48.366;10.926;2024-01-10T00:23:44;70.05;;;40.38;;
63326;SDS011;49452;48.366;10.926;2024-01-10T00:24:15;68.95;;;42.13;;
63326;SDS011;49452;48.366;10.926;2024-01-10T00:24:46;70.40;;;43.17;;
63326;SDS011;49452;48.366;10.926;2024-01-10T00:25:16;69.53;;;41.97;;
63326;SDS011;49452;48.366;10.926;2024-01-10T00:25:47;70.43;;;41.35;;
63326;SDS011;49452;48.366;10.926;2024-01-10T00:26:18;70.70;;;42.67;;
63326;SDS011;49452;48.366;10.926;2024-01-10T00:26:49;67.25;;;42.75;;
63326;SDS011;49452;48.366;10.926;2024-01-10T00:27:19;69.32;;;41.65;;
63326;SDS011;49452;48.366;10.926;2024-01-10T00:27:50;76.47;;;42.10;;
63326;SDS011;49452;48.366;10.926;2024-01-10T00:28:21;67.95;;;39.17;;
63326;SDS011;49452;48.366;10.926;2024-01-10T00:28:52;73.07;;;42.90;;
63326;SDS011;49452;48.366;10.926;2024-01-10T00:29:22;72.35;;;42.05;;
63326;SDS011;49452;48.366;10.926;2024-01-10T00:29:53;67.88;;;40.95;;
63326;SDS011;49452;48.366;10.926;2024-01-10T00:30:26;79.13;;;43.17;;
63326;SDS011;49452;48.366;10.926;2024-01-10T00:30:56;78.63;;;43.72;;
63326;SDS011;49452;48.366;10.926;2024-01-10T00:31:27;77.18;;;43.65;;
63326;SDS011;49452;48.366;10.926;2024-01-10T00:31:58;82.60;;;43.72;;
63326;SDS011;49452;48.366;10.926;2024-01-10T00:32:30;75.43;;;45.45;;
63326;SDS011;49452;48.366;10.926;2024-01-10T00:33:00;76.13;;;44.67;;
63326;SDS011;49452;48.366;10.926;2024-01-10T00:33:31;72.32;;;43.58;;
63326;SDS011;49452;48.366;10.926;2024-01-10T00:34:02;77.45;;;44.63;;
63326;SDS011;49452;48.366;10.926;2024-01-10T00:34:32;77.63;;;46.20;;
63326;SDS011;49452;48.366;10.926;2024-01-10T00:35:03;75.90;;;46.72;;
63326;SDS011;49452;48.366;10.926;2024-01-10T00:35:34;84.25;;;46.28;;
63326;SDS011;49452;48.366;10.926;2024-01-10T00:36:05;80.90;;;46.85;;
63326;SDS011;49452;48.366;10.926;2024-01-10T00:36:36;82.70;;;46.00;;
63326;SDS011;49452;48.366;10.926;2024-01-10T00:37:07;78.05;;;46.38;;
63326;SDS011;49452;48.366;10.926;2024-01-10T00:37:38;73.82;;;44.05;;
63326;SDS011;49452;48.366;10.926;2024-01-10T00:38:08;80.40;;;47.00;;
63326;SDS011;49452;48.366;10.926;2024-01-10T00:38:39;77.78;;;45.83;;
63326;SDS011;49452;48.366;10.926;2024-01-10T00:39:10;82.07;;;47.65;;
63326;SDS011;49452;48.366;10.926;2024-01-10T00:39:41;77.72;;;45.63;;
63326;SDS011;49452;48.366;10.926;2024-01-10T00:40:11;79.50;;;44.88;;
63326;SDS011;49452;48.366;10.926;2024-01-10T00:40:42;84.03;;;48.22;;
63326;SDS011;49452;48.366;10.926;2024-01-10T00:41:13;82.85;;;45.40;;
63326;SDS011;49452;48.366;10.926;2024-01-10T00:41:44;76.25;;;45.95;;
63326;SDS011;49452;48.366;10.926;2024-01-10T00:42:14;85.57;;;47.17;;
63326;SDS011;49452;48.366;10.926;2024-01-10T00:42:45;82.75;;;46.55;;
63326;SDS011;49452;48.366;10.926;2024-01-10T00:43:16;84.13;;;46.10;;
63326;SDS011;49452;48.366;10.926;2024-01-10T00:43:47;79.80;;;45.30;;
63326;SDS011;49452;48.366;10.926;2024-01-10T00:44:17;77.43;;;48.00;;
63326;SDS011;49452;48.366;10.926;2024-01-10T00:44:49;79.35;;;46.38;;
63326;SDS011;49452;48.366;10.926;2024-01-10T00:45:19;77.53;;;44.45;;
63326;SDS011;49452;48.366;10.926;2024-01-10T00:45:51;78.93;;;45.80;;
63326;SDS011;49452;48.366;10.926;2024-01-10T00:46:21;83.22;;;46.35;;
63326;SDS011;49452;48.366;10.926;2024-01-10T00:46:52;79.18;;;45.88;;
63326;SDS011;49452;48.366;10.926;2024-01-10T00:47:23;85.93;;;48.60;;
63326;SDS011;49452;48.366;10.926;2024-01-10T00:47:54;81.47;;;47.25;;
63326;SDS011;49452;48.366;10.926;2024-01-10T00:48:25;80.93;;;48.78;;
63326;SDS011;49452;48.366;10.926;2024-01-10T00:48:55;78.78;;;46.22;;
63326;SDS011;49452;48.366;10.926;2024-01-10T00:49:26;77.07;;;46.35;;
63326;SDS011;49452;48.366;10.926;2024-01-10T00:49:57;74.28;;;45.13;;
63326;SDS011;49452;48.366;10.926;2024-01-10T00:50:27;85.22;;;48.05;;
63326;SDS011;49452;48.366;10.926;2024-01-10T00:50:58;82.00;;;47.08;;
63326;SDS011;49452;48.366;10.926;2024-01-10T00:51:29;83.60;;;48.15;;
63326;SDS011;49452;48.366;10.926;2024-01-10T00:52:00;79.07;;;46.88;;
63326;SDS011;49452;48.366;10.926;2024-01-10T00:52:30;83.60;;;46.92;;
63326;SDS011;49452;48.366;10.926;2024-01-10T00:53:01;85.28;;;48.33;;
63326;SDS011;49452;48.366;10.926;2024-01-10T00:53:32;78.32;;;47.92;;
63326;SDS011;49452;48.366;10.926;2024-01-10T00:54:02;87.25;;;50.45;;
63326;SDS011;49452;48.366;10.926;2024-01-10T00:54:33;86.90;;;49.65;;
63326;SDS011;49452;48.366;10.926;2024-01-10T00:55:04;90.20;;;50.40;;
63326;SDS011;49452;48.366;10.926;2024-01-10T00:55:35;77.88;;;47.97;;
63326;SDS011;49452;48.366;10.926;2024-01-10T00:56:06;79.63;;;47.90;;
63326;SDS011;49452;48.366;10.926;2024-01-10T00:56:37;85.10;;;49.30;;
63326;SDS011;49452;48.366;10.926;2024-01-10T00:57:07;77.80;;;47.25;;
63326;SDS011;49452;48.366;10.926;2024-01-10T00:57:38;79.97;;;46.55;;
63326;SDS011;49452;48.366;10.926;2024-01-10T00:58:09;80.22;;;46.78;;
63326;SDS011;49452;48.366;10.926;2024-01-10T00:58:40;86.47;;;47.85;;
63326;SDS011;49452;48.366;10.926;2024-01-10T00:59:11;81.63;;;46.83;;
63326;SDS011;49452;48.366;10.926;2024-01-10T00:59:42;85.93;;;49.63;;
63326;SDS011;49452;48.366;10.926;2024-01-10T01:00:13;88.50;;;51.28;;
63326;SDS011;49452;48.366;10.926;2024-01-10T01:00:44;82.45;;;47.42;;
63326;SDS011;49452;48.366;10.926;2024-01-10T01:01:15;82.70;;;47.25;;
63326;SDS011;49452;48.366;10.926;2024-01-10T01:01:45;78.45;;;47.25;;
63326;SDS011;49452;48.366;10.926;2024-01-10T01:02:16;80.50;;;47.05;;
63326;SDS011;49452;48.366;10.926;2024-01-10T01:02:47;75.93;;;46.03;;
63326;SDS011;49452;48.366;10.926;2024-01-10T01:03:18;83.63;;;48.55;;
63326;SDS011;49452;48.366;10.926;2024-01-10T01:03:48;81.75;;;47.42;;
63326;SDS011;49452;48.366;10.926;2024-01-10T01:04:19;79.05;;;45.50;;
63326;SDS011;49452;48.366;10.926;2024-01-10T01:04:50;86.90;;;47.55;;
63326;SDS011;49452;48.366;10.926;2024-01-10T01:05:20;76.18;;;44.53;;
63326;SDS011;49452;48.366;10.926;2024-01-10T01:05:51;78.15;;;44.45;;
63326;SDS011;49452;48.366;10.926;2024-01-10T01:06:22;76.43;;;44.10;;
63326;SDS011;49452;48.366;10.926;2024-01-10T01:06:53;77.28;;;45.90;;
63326;SDS011;49452;48.366;10.926;2024-01-10T01:07:24;81.45;;;44.75;;
63326;SDS011;49452;48.366;10.926;2024-01-10T01:07:55;79.20;;;45.95;;
63326;SDS011;49452;48.366;10.926;2024-01-10T01:08:25;83.50;;;48.17;;
63326;SDS011;49452;48.366;10.926;2024-01-10T01:08:56;80.13;;;46.35;;
63326;SDS011;49452;48.366;10.926;2024-01-10T01:09:29;80.13;;;46.17;;
63326;SDS011;49452;48.366;10.926;2024-01-10T01:09:59;77.53;;;45.70;;
63326;SDS011;49452;48.366;10.926;2024-01-10T01:10:30;80.00;;;47.42;;
63326;SDS011;49452;48.366;10.926;2024-01-10T01:11:01;76.88;;;44.83;;
63326;SDS011;49452;48.366;10.926;2024-01-10T01:11:31;77.97;;;44.30;;
63326;SDS011;49452;48.366;10.926;2024-01-10T01:12:02;77.15;;;45.60;;
63326;SDS011;49452;48.366;10.926;2024-01-10T01:12:33;79.63;;;45.40;;
63326;SDS011;49452;48.366;10.926;2024-01-10T01:13:04;80.57;;;44.63;;
63326;SDS011;49452;48.366;10.926;2024-01-10T01:13:34;78.75;;;46.10;;
63326;SDS011;49452;48.366;10.926;2024-01-10T01:14:05;75.43;;;45.53;;
63326;SDS011;49452;48.366;10.926;2024-01-10T01:14:36;75.00;;;43.40;;
63326;SDS011;49452;48.366;10.926;2024-01-10T01:15:07;75.50;;;44.20;;
63326;SDS011;49452;48.366;10.926;2024-01-10T01:15:38;78.75;;;44.50;;
63326;SDS011;49452;48.366;10.926;2024-01-10T01:16:10;75.15;;;43.80;;
63326;SDS011;49452;48.366;10.926;2024-01-10T01:16:41;77.10;;;45.55;;
63326;SDS011;49452;48.366;10.926;2024-01-10T01:17:12;79.10;;;45.67;;
63326;SDS011;49452;48.366;10.926;2024-01-10T01:17:43;74.40;;;42.45;;
63326;SDS011;49452;48.366;10.926;2024-01-10T01:18:13;81.85;;;44.72;;
63326;SDS011;49452;48.366;10.926;2024-01-10T01:18:45;77.93;;;44.00;;
63326;SDS011;49452;48.366;10.926;2024-01-10T01:19:15;75.47;;;43.58;;
63326;SDS011;49452;48.366;10.926;2024-01-10T01:19:46;78.35;;;45.47;;
63326;SDS011;49452;48.366;10.926;2024-01-10T01:20:17;80.60;;;44.03;;
63326;SDS011;49452;48.366;10.926;2024-01-10T01:20:47;72.03;;;43.05;;
63326;SDS011;49452;48.366;10.926;2024-01-10T01:21:20;80.03;;;46.53;;
63326;SDS011;49452;48.366;10.926;2024-01-10T01:21:51;80.10;;;45.60;;
63326;SDS011;49452;48.366;10.926;2024-01-10T01:22:22;71.93;;;43.78;;
63326;SDS011;49452;48.366;10.926;2024-01-10T01:22:52;76.75;;;44.75;;
63326;SDS011;49452;48.366;10.926;2024-01-10T01:23:23;74.97;;;41.92;;
63326;SDS011;49452;48.366;10.926;2024-01-10T01:23:54;76.32;;;44.00;;
63326;SDS011;49452;48.366;10.926;2024-01-10T01:24:25;83.55;;;47.00;;
63326;SDS011;49452;48.366;10.926;2024-01-10T01:24:56;82.20;;;46.45;;
63326;SDS011;49452;48.366;10.926;2024-01-10T01:25:26;73.57;;;45.83;;
63326;SDS011;49452;48.366;10.926;2024-01-10T01:25:57;78.90;;;46.55;;
63326;SDS011;49452;48.366;10.926;2024-01-10T01:26:28;84.70;;;48.22;;
63326;SDS011;49452;48.366;10.926;2024-01-10T01:26:58;74.47;;;46.72;;
63326;SDS011;49452;48.366;10.926;2024-01-10T01:27:30;79.32;;;46.47;;
63326;SDS011;49452;48.366;10.926;2024-01-10T01:28:00;81.78;;;44.53;;
63326;SDS011;49452;48.366;10.926;2024-01-10T01:28:31;74.00;;;41.60;;
63326;SDS011;49452;48.366;10.926;2024-01-10T01:29:02;80.07;;;45.15;;
63326;SDS011;49452;48.366;10.926;2024-01-10T01:29:33;78.43;;;44.58;;
63326;SDS011;49452;48.366;10.926;2024-01-10T01:30:04;75.35;;;44.35;;
63326;SDS011;49452;48.366;10.926;2024-01-10T01:30:34;76.40;;;44.47;;
63326;SDS011;49452;48.366;10.926;2024-01-10T01:31:05;81.53;;;47.22;;
63326;SDS011;49452;48.366;10.926;2024-01-10T01:31:36;78.32;;;46.58;;
63326;SDS011;49452;48.366;10.926;2024-01-10T01:32:07;79.57;;;47.33;;
63326;SDS011;49452;48.366;10.926;2024-01-10T01:32:38;80.75;;;47.50;;
63326;SDS011;49452;48.366;10.926;2024-01-10T01:33:09;87.18;;;46.45;;
63326;SDS011;49452;48.366;10.926;2024-01-10T01:33:39;82.03;;;47.03;;
63326;SDS011;49452;48.366;10.926;2024-01-10T01:34:10;73.72;;;43.10;;
63326;SDS011;49452;48.366;10.926;2024-01-10T01:34:41;74.80;;;43.25;;
63326;SDS011;49452;48.366;10.926;2024-01-10T01:35:12;76.97;;;44.80;;
63326;SDS011;49452;48.366;10.926;2024-01-10T01:35:42;84.50;;;47.28;;
63326;SDS011;49452;48.366;10.926;2024-01-10T01:36:13;86.05;;;48.42;;
63326;SDS011;49452;48.366;10.926;2024-01-10T01:36:44;88.93;;;49.20;;
63326;SDS011;49452;48.366;10.926;2024-01-10T01:37:15;85.72;;;48.17;;
63326;SDS011;49452;48.366;10.926;2024-01-10T01:37:45;82.40;;;46.88;;
63326;SDS011;49452;48.366;10.926;2024-01-10T01:38:16;78.50;;;45.70;;
63326;SDS011;49452;48.366;10.926;2024-01-10T01:38:47;84.88;;;47.55;;
63326;SDS011;49452;48.366;10.926;2024-01-10T01:39:18;76.82;;;45.13;;
63326;SDS011;49452;48.366;10.926;2024-01-10T01:39:48;82.97;;;45.83;;
63326;SDS011;49452;48.366;10.926;2024-01-10T01:40:20;81.70;;;45.28;;
63326;SDS011;49452;48.366;10.926;2024-01-10T01:40:51;78.45;;;44.97;;
63326;SDS011;49452;48.366;10.926;2024-01-10T01:41:22;83.28;;;47.05;;
63326;SDS011;49452;48.366;10.926;2024-01-10T01:41:53;83.28;;;47.58;;
63326;SDS011;49452;48.366;10.926;2024-01-10T01:42:23;80.57;;;48.08;;
63326;SDS011;49452;48.366;10.926;2024-01-10T01:42:54;81.50;;;46.05;;
63326;SDS011;49452;48.366;10.926;2024-01-10T01:43:25;83.30;;;46.80;;
63326;SDS011;49452;48.366;10.926;2024-01-10T01:43:56;87.35;;;47.20;;
63326;SDS011;49452;48.366;10.926;2024-01-10T01:44:26;80.97;;;45.70;;
63326;SDS011;49452;48.366;10.926;2024-01-10T01:44:57;85.45;;;46.33;;
63326;SDS011;49452;48.366;10.926;2024-01-10T01:45:28;86.50;;;47.30;;
63326;SDS011;49452;48.366;10.926;2024-01-10T01:45:59;79.25;;;44.45;;
63326;SDS011;49452;48.366;10.926;2024-01-10T01:46:29;87.75;;;47.72;;
63326;SDS011;49452;48.366;10.926;2024-01-10T01:47:01;77.78;;;46.22;;
63326;SDS011;49452;48.366;10.926;2024-01-10T01:47:32;77.25;;;45.15;;
63326;SDS011;49452;48.366;10.926;2024-01-10T01:48:02;75.15;;;44.35;;
63326;SDS011;49452;48.366;10.926;2024-01-10T01:48:33;76.10;;;43.65;;
63326;SDS011;49452;48.366;10.926;2024-01-10T01:49:04;73.25;;;43.25;;
63326;SDS011;49452;48.366;10.926;2024-01-10T01:49:35;68.63;;;42.20;;
63326;SDS011;49452;48.366;10.926;2024-01-10T01:50:06;75.28;;;43.10;;
63326;SDS011;49452;48.366;10.926;2024-01-10T01:50:37;83.70;;;46.72;;
63326;SDS011;49452;48.366;10.926;2024-01-10T01:51:08;86.65;;;44.42;;
63326;SDS011;49452;48.366;10.926;2024-01-10T01:51:39;79.40;;;43.55;;
63326;SDS011;49452;48.366;10.926;2024-01-10T01:52:10;80.20;;;45.38;;
63326;SDS011;49452;48.366;10.926;2024-01-10T01:52:41;76.80;;;43.97;;
63326;SDS011;49452;48.366;10.926;2024-01-10T01:53:13;85.55;;;46.10;;
63326;SDS011;49452;48.366;10.926;2024-01-10T01:53:44;85.32;;;46.40;;
63326;SDS011;49452;48.366;10.926;2024-01-10T01:54:15;78.88;;;43.47;;
63326;SDS011;49452;48.366;10.926;2024-01-10T01:54:45;80.75;;;47.60;;
63326;SDS011;49452;48.366;10.926;2024-01-10T01:55:17;86.72;;;46.75;;
63326;SDS011;49452;48.366;10.926;2024-01-10T01:55:47;80.40;;;45.33;;
63326;SDS011;49452;48.366;10.926;2024-01-10T01:56:19;75.75;;;45.38;;
63326;SDS011;49452;48.366;10.926;2024-01-10T01:56:49;81.20;;;45.33;;
63326;SDS011;49452;48.366;10.926;2024-01-10T01:57:21;79.15;;;45.67;;
63326;SDS011;49452;48.366;10.926;2024-01-10T01:57:52;79.80;;;46.50;;
63326;SDS011;49452;48.366;10.926;2024-01-10T01:58:22;87.55;;;46.78;;
63326;SDS011;49452;48.366;10.926;2024-01-10T01:58:53;82.50;;;45.75;;
63326;SDS011;49452;48.366;10.926;2024-01-10T01:59:24;76.80;;;46.03;;
63326;SDS011;49452;48.366;10.926;2024-01-10T01:59:55;86.68;;;48.58;;
63326;SDS011;49452;48.366;10.926;2024-01-10T02:00:26;82.30;;;47.17;;
63326;SDS011;49452;48.366;10.926;2024-01-10T02:00:57;86.35;;;46.95;;
63326;SDS011;49452;48.366;10.926;2024-01-10T02:01:28;78.82;;;45.88;;
63326;SDS011;49452;48.366;10.926;2024-01-10T02:01:59;84.22;;;47.83;;
63326;SDS011;49452;48.366;10.926;2024-01-10T02:02:31;79.50;;;46.10;;
63326;SDS011;49452;48.366;10.926;2024-01-10T02:03:03;73.75;;;45.72;;
63326;SDS011;49452;48.366;10.926;2024-01-10T02:03:35;76.15;;;45.58;;
63326;SDS011;49452;48.366;10.926;2024-01-10T02:04:05;83.00;;;45.45;;
63326;SDS011;49452;48.366;10.926;2024-01-10T02:04:36;85.05;;;47.70;;
63326;SDS011;49452;48.366;10.926;2024-01-10T02:05:07;77.95;;;45.80;;
63326;SDS011;49452;48.366;10.926;2024-01-10T02:05:38;77.40;;;45.85;;
63326;SDS011;49452;48.366;10.926;2024-01-10T02:06:08;82.05;;;45.05;;
63326;SDS011;49452;48.366;10.926;2024-01-10T02:06:39;68.85;;;41.10;;
63326;SDS011;49452;48.366;10.926;2024-01-10T02:07:10;78.50;;;44.63;;
63326;SDS011;49452;48.366;10.926;2024-01-10T02:07:40;81.45;;;44.92;;
63326;SDS011;49452;48.366;10.926;2024-01-10T02:08:11;83.63;;;48.80;;
63326;SDS011;49452;48.366;10.926;2024-01-10T02:08:42;79.28;;;46.50;;
63326;SDS011;49452;48.366;10.926;2024-01-10T02:09:12;76.35;;;45.22;;
63326;SDS011;49452;48.366;10.926;2024-01-10T02:09:44;81.78;;;45.55;;
63326;SDS011;49452;48.366;10.926;2024-01-10T02:10:14;67.25;;;40.83;;
63326;SDS011;49452;48.366;10.926;2024-01-10T02:10:45;69.15;;;41.65;;
63326;SDS011;49452;48.366;10.926;2024-01-10T02:11:16;74.50;;;44.83;;
63326;SDS011;49452;48.366;10.926;2024-01-10T02:11:46;78.78;;;44.08;;
63326;SDS011;49452;48.366;10.926;2024-01-10T02:12:18;70.15;;;41.85;;
63326;SDS011;49452;48.366;10.926;2024-01-10T02:12:48;77.35;;;41.60;;
63326;SDS011;49452;48.366;10.926;2024-01-10T02:13:19;73.43;;;41.92;;
63326;SDS011;49452;48.366;10.926;2024-01-10T02:13:50;69.97;;;41.78;;
63326;SDS011;49452;48.366;10.926;2024-01-10T02:14:22;71.05;;;42.50;;
63326;SDS011;49452;48.366;10.926;2024-01-10T02:14:52;72.88;;;42.75;;
63326;SDS011;49452;48.366;10.926;2024-01-10T02:15:23;71.50;;;41.72;;
63326;SDS011;49452;48.366;10.926;2024-01-10T02:15:54;75.65;;;43.85;;
63326;SDS011;49452;48.366;10.926;2024-01-10T02:16:25;80.72;;;43.97;;
63326;SDS011;49452;48.366;10.926;2024-01-10T02:16:56;73.28;;;42.17;;
63326;SDS011;49452;48.366;10.926;2024-01-10T02:17:26;69.65;;;42.95;;
63326;SDS011;49452;48.366;10.926;2024-01-10T02:17:58;71.93;;;42.67;;
63326;SDS011;49452;48.366;10.926;2024-01-10T02:18:28;71.65;;;41.55;;
63326;SDS011;49452;48.366;10.926;2024-01-10T02:18:59;74.22;;;43.17;;
63326;SDS011;49452;48.366;10.926;2024-01-10T02:19:32;71.85;;;42.53;;
63326;SDS011;49452;48.366;10.926;2024-01-10T02:20:08;72.38;;;42.17;;
63326;SDS011;49452;48.366;10.926;2024-01-10T02:20:40;71.75;;;41.63;;
63326;SDS011;49452;48.366;10.926;2024-01-10T02:21:12;75.57;;;42.00;;
63326;SDS011;49452;48.366;10.926;2024-01-10T02:21:43;66.65;;;41.00;;
63326;SDS011;49452;48.366;10.926;2024-01-10T02:22:14;72.20;;;41.63;;
63326;SDS011;49452;48.366;10.926;2024-01-10T02:22:45;73.82;;;43.05;;
63326;SDS011;49452;48.366;10.926;2024-01-10T02:23:15;68.25;;;39.80;;
63326;SDS011;49452;48.366;10.926;2024-01-10T02:23:46;66.07;;;39.97;;
63326;SDS011;49452;48.366;10.926;2024-01-10T02:24:17;72.25;;;41.10;;
63326;SDS011;49452;48.366;10.926;2024-01-10T02:24:52;73.95;;;42.22;;
63326;SDS011;49452;48.366;10.926;2024-01-10T02:25:24;66.32;;;40.72;;
63326;SDS011;49452;48.366;10.926;2024-01-10T02:25:54;66.82;;;41.15;;
63326;SDS011;49452;48.366;10.926;2024-01-10T02:26:25;68.32;;;41.65;;
63326;SDS011;49452;48.366;10.926;2024-01-10T02:26:57;72.82;;;43.03;;
63326;SDS011;49452;48.366;10.926;2024-01-10T02:27:28;77.32;;;43.10;;
63326;SDS011;49452;48.366;10.926;2024-01-10T02:27:59;73.15;;;42.90;;
63326;SDS011;49452;48.366;10.926;2024-01-10T02:28:29;70.68;;;41.65;;
63326;SDS011;49452;48.366;10.926;2024-01-10T02:29:00;72.07;;;43.22;;
63326;SDS011;49452;48.366;10.926;2024-01-10T02:29:31;78.03;;;43.33;;
63326;SDS011;49452;48.366;10.926;2024-01-10T02:30:05;73.68;;;43.85;;
63326;SDS011;49452;48.366;10.926;2024-01-10T02:30:35;72.88;;;42.00;;
63326;SDS011;49452;48.366;10.926;2024-01-10T02:31:06;72.53;;;41.28;;
63326;SDS011;49452;48.366;10.926;2024-01-10T02:31:37;71.50;;;43.58;;
63326;SDS011;49452;48.366;10.926;2024-01-10T02:32:08;72.97;;;43.85;;
63326;SDS011;49452;48.366;10.926;2024-01-10T02:32:39;72.28;;;43.42;;
63326;SDS011;49452;48.366;10.926;2024-01-10T02:33:09;77.28;;;45.53;;
63326;SDS011;49452;48.366;10.926;2024-01-10T02:33:40;76.80;;;44.65;;
63326;SDS011;49452;48.366;10.926;2024-01-10T02:34:11;77.90;;;44.97;;
63326;SDS011;49452;48.366;10.926;2024-01-10T02:34:41;79.20;;;46.50;;
63326;SDS011;49452;48.366;10.926;2024-01-10T02:35:12;82.68;;;47.47;;
63326;SDS011;49452;48.366;10.926;2024-01-10T02:35:43;76.30;;;45.28;;
63326;SDS011;49452;48.366;10.926;2024-01-10T02:36:13;79.22;;;46.78;;
63326;SDS011;49452;48.366;10.926;2024-01-10T02:36:44;85.75;;;49.30;;
63326;SDS011;49452;48.366;10.926;2024-01-10T02:37:15;86.40;;;52.35;;
63326;SDS011;49452;48.366;10.926;2024-01-10T02:37:46;82.25;;;49.03;;
63326;SDS011;49452;48.366;10.926;2024-01-10T02:38:17;82.10;;;50.25;;
63326;SDS011;49452;48.366;10.926;2024-01-10T02:38:51;83.00;;;50.28;;
63326;SDS011;49452;48.366;10.926;2024-01-10T02:39:21;87.18;;;50.20;;
63326;SDS011;49452;48.366;10.926;2024-01-10T02:39:52;86.78;;;50.72;;
63326;SDS011;49452;48.366;10.926;2024-01-10T02:40:23;80.97;;;48.10;;
63326;SDS011;49452;48.366;10.926;2024-01-10T02:40:53;81.25;;;49.45;;
63326;SDS011;49452;48.366;10.926;2024-01-10T02:41:26;86.05;;;49.90;;
63326;SDS011;49452;48.366;10.926;2024-01-10T02:41:58;83.45;;;48.20;;
63326;SDS011;49452;48.366;10.926;2024-01-10T02:42:28;84.18;;;48.22;;
63326;SDS011;49452;48.366;10.926;2024-01-10T02:43:00;84.97;;;50.03;;
63326;SDS011;49452;48.366;10.926;2024-01-10T02:43:31;81.70;;;49.10;;
63326;SDS011;49452;48.366;10.926;2024-01-10T02:44:02;80.20;;;49.70;;
63326;SDS011;49452;48.366;10.926;2024-01-10T02:44:32;83.57;;;49.10;;
63326;SDS011;49452;48.366;10.926;2024-01-10T02:45:04;77.47;;;48.03;;
63326;SDS011;49452;48.366;10.926;2024-01-10T02:45:35;83.55;;;49.95;;
63326;SDS011;49452;48.366;10.926;2024-01-10T02:46:06;80.13;;;47.67;;
63326;SDS011;49452;48.366;10.926;2024-01-10T02:46:36;76.60;;;48.50;;
63326;SDS011;49452;48.366;10.926;2024-01-10T02:47:07;78.97;;;49.08;;
63326;SDS011;49452;48.366;10.926;2024-01-10T02:47:38;82.35;;;49.35;;
63326;SDS011;49452;48.366;10.926;2024-01-10T02:48:09;84.68;;;50.22;;
63326;SDS011;49452;48.366;10.926;2024-01-10T02:48:40;87.20;;;51.08;;
63326;SDS011;49452;48.366;10.926;2024-01-10T02:49:11;85.13;;;50.45;;
63326;SDS011;49452;48.366;10.926;2024-01-10T02:49:42;82.13;;;50.58;;
63326;SDS011;49452;48.366;10.926;2024-01-10T02:50:12;88.78;;;50.22;;
63326;SDS011;49452;48.366;10.926;2024-01-10T02:50:43;85.10;;;49.45;;
63326;SDS011;49452;48.366;10.926;2024-01-10T02:51:14;82.90;;;46.42;;
63326;SDS011;49452;48.366;10.926;2024-01-10T02:51:44;82.45;;;49.58;;
63326;SDS011;49452;48.366;10.926;2024-01-10T02:52:16;82.10;;;48.08;;
63326;SDS011;49452;48.366;10.926;2024-01-10T02:52:46;84.43;;;51.05;;
63326;SDS011;49452;48.366;10.926;2024-01-10T02:53:17;83.03;;;48.72;;
63326;SDS011;49452;48.366;10.926;2024-01-10T02:53:48;79.13;;;48.83;;
63326;SDS011;49452;48.366;10.926;2024-01-10T02:54:18;81.20;;;48.45;;
63326;SDS011;49452;48.366;10.926;2024-01-10T02:54:49;83.75;;;50.22;;
63326;SDS011;49452;48.366;10.926;2024-01-10T02:55:20;79.05;;;48.35;;
63326;SDS011;49452;48.366;10.926;2024-01-10T02:55:51;79.40;;;47.78;;
63326;SDS011;49452;48.366;10.926;2024-01-10T02:56:21;75.40;;;45.60;;
63326;SDS011;49452;48.366;10.926;2024-01-10T02:56:52;80.93;;;47.53;;
63326;SDS011;49452;48.366;10.926;2024-01-10T02:57:23;81.65;;;48.35;;
63326;SDS011;49452;48.366;10.926;2024-01-10T02:57:53;84.75;;;48.50;;